Dryden, Maine
Current Conditions -  °F | °C
As of 7:15 PM on Friday 24 Oct 2014 (Local Time) from KWVL Reporting Station
Overcast Overcast  
Wind Chill: 40°   Ceiling: 1600
Heat Index: 46°   Visibility: 10mi
Dew Point: 39°   Wind: 14mph
Humidity: 76%   Direction: 340°NNW
Pressure: 29.66"   Gusts: 18mph
Location:  44.59°N, 70.21°W
Report Text: KWVL 242315Z 34012G16KT 10SM OVC016 08/04 A2966 RMK AO1
Loading
Personal Weather Stations






























Interactive Weather Map
Tropical Storm Tracking
New forecast layout! Learn more

10-Day Weather Forecast

Advertisements
Track Severe Weather on mobile